createdAt,value
2022-09-06T00:01:23.447Z,16.05
2022-09-06T00:03:52.177Z,16.30
2022-09-06T00:06:21.542Z,17.36
2022-09-06T00:08:49.944Z,17.49
2022-09-06T00:11:19.253Z,17.50
2022-09-06T00:13:47.655Z,17.50
2022-09-06T00:16:18.017Z,17.50
2022-09-06T00:18:47.764Z,16.07
2022-09-06T00:21:21.086Z,16.20
2022-09-06T00:23:49.429Z,17.53
2022-09-06T00:26:17.807Z,16.02
2022-09-06T00:28:46.200Z,16.39
2022-09-06T00:31:16.424Z,17.61
2022-09-06T00:33:44.991Z,16.68
2022-09-06T00:36:14.645Z,16.35
2022-09-06T00:38:43.760Z,17.78
2022-09-06T00:41:13.793Z,17.41
2022-09-06T00:43:42.969Z,17.81
2022-09-06T00:46:16.794Z,17.89
2022-09-06T00:48:47.297Z,17.04
2022-09-06T00:51:19.212Z,17.33
2022-09-06T00:53:47.566Z,18.06
2022-09-06T00:56:15.923Z,18.20
2022-09-06T00:58:44.648Z,17.08
2022-09-06T01:01:12.762Z,16.60
2022-09-06T01:03:41.304Z,16.94
2022-09-06T01:06:24.625Z,18.61
2022-09-06T01:09:03.835Z,18.72
2022-09-06T01:11:52.589Z,18.25
2022-09-06T01:14:33.874Z,17.96
2022-09-06T01:17:12.698Z,19.21
2022-09-06T01:20:16.056Z,18.13
2022-09-06T01:23:20.774Z,18.50
2022-09-06T01:26:00.882Z,18.14
2022-09-06T01:28:34.398Z,18.31
2022-09-06T01:31:12.410Z,17.89
2022-09-06T01:33:47.282Z,19.11
2022-09-06T01:36:18.455Z,19.15
2022-09-06T01:38:46.663Z,17.94
2022-09-06T01:41:14.659Z,18.66
2022-09-06T01:43:48.550Z,18.44
2022-09-06T01:46:21.288Z,18.28
2022-09-06T01:49:03.450Z,17.64
2022-09-06T01:51:38.715Z,17.38
2022-09-06T01:54:24.065Z,18.56
2022-09-06T01:57:05.064Z,17.61
2022-09-06T01:59:56.197Z,19.14
2022-09-06T02:02:31.186Z,17.31
2022-09-06T02:05:06.023Z,17.74
2022-09-06T02:07:36.388Z,19.05
2022-09-06T02:10:09.827Z,18.14
2022-09-06T02:12:42.325Z,17.90
2022-09-06T02:15:17.692Z,18.97
2022-09-06T02:17:53.934Z,18.09
2022-09-06T02:20:25.886Z,18.91
2022-09-06T02:22:57.456Z,17.67
2022-09-06T02:25:28.848Z,17.48
2022-09-06T02:27:57.233Z,18.18
2022-09-06T02:30:26.703Z,17.33
2022-09-06T02:32:59.533Z,18.87
2022-09-06T02:35:27.963Z,18.26
2022-09-06T02:37:56.856Z,17.82
2022-09-06T02:40:25.612Z,18.61
2022-09-06T02:42:54.570Z,17.94
2022-09-06T02:45:22.618Z,18.80
2022-09-06T02:47:52.172Z,18.06
2022-09-06T02:50:20.302Z,18.80
2022-09-06T02:52:48.411Z,17.81
2022-09-06T02:55:16.599Z,17.07
2022-09-06T02:57:44.783Z,18.06
2022-09-06T03:00:13.975Z,18.66
2022-09-06T03:02:42.149Z,17.66
2022-09-06T03:05:12.374Z,18.81
2022-09-06T03:07:40.542Z,17.00
2022-09-06T03:10:09.198Z,17.86
2022-09-06T03:12:37.443Z,18.76
2022-09-06T03:15:06.354Z,17.40
2022-09-06T03:17:34.463Z,17.66
2022-09-06T03:20:02.789Z,18.66
2022-09-06T03:22:32.512Z,17.96
2022-09-06T03:25:00.642Z,18.57
2022-09-06T03:27:29.326Z,17.23
2022-09-06T03:29:57.316Z,17.83
2022-09-06T03:32:25.373Z,17.27
2022-09-06T03:34:53.528Z,18.46
2022-09-06T03:37:21.667Z,17.69
2022-09-06T03:39:51.148Z,17.09
2022-09-06T03:42:19.460Z,17.85
2022-09-06T03:44:47.533Z,16.87
2022-09-06T03:47:19.284Z,17.99
2022-09-06T03:49:47.868Z,17.95
2022-09-06T03:52:16.069Z,16.13
2022-09-06T03:54:44.208Z,17.41
2022-09-06T03:57:13.719Z,16.35
2022-09-06T03:59:41.865Z,16.95
2022-09-06T04:02:10.096Z,16.95
2022-09-06T04:04:38.182Z,16.59
2022-09-06T04:07:06.422Z,17.38
2022-09-06T04:09:34.768Z,16.79
2022-09-06T04:12:03.151Z,17.28
2022-09-06T04:14:32.651Z,17.21
2022-09-06T04:17:03.181Z,17.14
2022-09-06T04:19:32.981Z,16.73
2022-09-06T04:22:01.482Z,15.74
2022-09-06T04:24:29.486Z,16.93
2022-09-06T04:42:07.536Z,16.44
2022-09-06T04:46:02.188Z,16.33
2022-09-06T04:48:30.296Z,15.97
2022-09-06T04:50:58.304Z,16.25
2022-09-06T04:53:26.289Z,16.22
2022-09-06T04:55:54.354Z,16.00
2022-09-06T04:58:23.707Z,16.15
2022-09-06T05:00:51.743Z,15.83
2022-09-06T05:03:19.800Z,15.88
2022-09-06T05:05:48.354Z,14.57
2022-09-06T05:08:16.574Z,15.71
2022-09-06T05:10:44.667Z,15.91
2022-09-06T05:13:12.631Z,15.91
2022-09-06T05:15:42.055Z,16.00
2022-09-06T05:18:12.934Z,16.00
2022-09-06T05:20:43.954Z,15.99
2022-09-06T05:23:12.023Z,15.98
2022-09-06T05:25:40.012Z,15.99
2022-09-06T05:28:08.925Z,16.00
2022-09-06T05:30:37.020Z,16.03
2022-09-06T05:33:06.366Z,15.66
2022-09-06T05:35:34.397Z,16.17
2022-09-06T05:38:02.344Z,16.60
2022-09-06T05:40:30.552Z,17.42
2022-09-06T05:42:58.610Z,18.10
2022-09-06T05:45:26.777Z,19.08
2022-09-06T05:47:55.018Z,19.77
2022-09-06T05:50:24.324Z,20.21
2022-09-06T05:52:54.752Z,21.22
2022-09-06T05:55:22.755Z,21.89
2022-09-06T05:57:50.697Z,22.63
2022-09-06T06:00:18.947Z,23.07
2022-09-06T06:02:48.581Z,23.24
2022-09-06T06:05:17.595Z,24.25
2022-09-06T06:07:47.057Z,24.95
2022-09-06T06:10:15.051Z,25.84
2022-09-06T06:12:43.008Z,26.60
2022-09-06T06:15:12.078Z,27.33
2022-09-06T06:17:40.108Z,28.05
2022-09-06T06:20:10.328Z,28.51
2022-09-06T06:22:39.039Z,29.45
2022-09-06T06:25:08.953Z,30.03
2022-09-06T06:27:37.910Z,30.69
2022-09-06T06:30:06.859Z,31.35
2022-09-06T06:32:35.028Z,32.02
2022-09-06T06:35:09.770Z,32.28
2022-09-06T06:37:38.947Z,32.69
2022-09-06T06:40:09.593Z,33.21
2022-09-06T06:42:37.560Z,34.37
2022-09-06T06:45:06.455Z,35.03
2022-09-06T06:47:34.545Z,35.71
2022-09-06T06:50:02.475Z,36.29
2022-09-06T06:52:30.804Z,36.59
2022-09-06T06:54:58.975Z,37.38
2022-09-06T06:57:30.662Z,37.75
2022-09-06T06:59:58.694Z,38.34
2022-09-06T07:02:29.798Z,38.91
2022-09-06T07:08:19.334Z,40.27
2022-09-06T07:10:53.872Z,40.68
2022-09-06T07:13:27.005Z,41.07
2022-09-06T07:16:08.597Z,41.64
2022-09-06T07:18:37.899Z,41.95
2022-09-06T07:24:10.737Z,43.09
2022-09-06T07:26:40.801Z,43.28
2022-09-06T07:29:10.272Z,43.25
2022-09-06T07:32:18.075Z,43.39
2022-09-06T07:34:48.818Z,44.45
2022-09-06T07:37:16.998Z,44.71
2022-09-06T07:39:45.262Z,44.85
2022-09-06T07:42:13.419Z,45.37
2022-09-06T07:44:42.820Z,46.01
2022-09-06T07:55:35.712Z,45.91
2022-09-06T07:58:04.106Z,46.02
2022-09-06T08:00:33.924Z,45.67
2022-09-06T08:03:02.022Z,46.04
2022-09-06T08:11:07.603Z,45.48
2022-09-06T08:13:35.883Z,46.81
2022-09-06T08:16:08.245Z,46.74
2022-09-06T08:18:37.508Z,46.02
2022-09-06T08:21:12.631Z,46.62
2022-09-06T08:23:43.176Z,46.95
2022-09-06T08:26:11.960Z,48.24
2022-09-06T08:28:40.284Z,48.47
2022-09-06T08:31:11.911Z,48.03
2022-09-06T08:33:41.388Z,47.45
2022-09-06T08:36:10.587Z,47.34
2022-09-06T08:38:39.091Z,48.63
2022-09-06T08:41:10.118Z,49.12
2022-09-06T08:43:39.688Z,49.49
2022-09-06T08:46:09.589Z,49.77
2022-09-06T08:48:39.983Z,49.59
2022-09-06T08:51:34.452Z,50.51
2022-09-06T08:54:13.265Z,51.27
2022-09-06T08:57:04.115Z,51.48
2022-09-06T08:59:38.825Z,51.95
2022-09-06T09:02:16.399Z,52.07
2022-09-06T09:04:53.525Z,52.88
2022-09-06T09:07:32.697Z,52.72
2022-09-06T09:10:04.697Z,53.15
2022-09-06T09:12:36.486Z,53.23
2022-09-06T09:15:11.558Z,51.95
2022-09-06T09:17:39.860Z,52.76
2022-09-06T09:20:10.399Z,53.30
2022-09-06T09:22:39.273Z,54.08
2022-09-06T09:25:10.256Z,54.70
2022-09-06T09:27:39.626Z,54.78
2022-09-06T09:32:57.029Z,53.56
2022-09-06T09:35:36.624Z,52.42
2022-09-06T09:38:12.108Z,52.71
2022-09-06T09:40:43.833Z,52.93
2022-09-06T09:43:16.755Z,52.86
2022-09-06T09:45:46.855Z,53.65
2022-09-06T09:48:21.673Z,53.85
2022-09-06T09:50:51.294Z,54.59
2022-09-06T09:53:22.310Z,55.05
2022-09-06T09:55:57.204Z,55.45
2022-09-06T09:58:34.462Z,56.08
2022-09-06T10:01:16.946Z,56.64
2022-09-06T10:09:35.736Z,55.93
2022-09-06T10:12:04.901Z,55.97
2022-09-06T10:14:34.884Z,55.73
2022-09-06T10:17:03.226Z,56.18
2022-09-06T10:19:46.376Z,56.38
2022-09-06T10:22:29.968Z,56.87
2022-09-06T10:25:37.691Z,57.08
2022-09-06T10:28:36.708Z,57.75
2022-09-06T10:31:30.235Z,58.00
2022-09-06T10:34:10.168Z,57.86
2022-09-06T10:36:41.019Z,57.42
2022-09-06T10:39:27.454Z,58.42
2022-09-06T10:42:09.083Z,58.51
2022-09-06T10:44:51.419Z,58.44
2022-09-06T10:47:19.702Z,57.63
2022-09-06T10:49:56.653Z,57.41
2022-09-06T10:52:34.539Z,57.60
2022-09-06T10:55:06.710Z,56.69
2022-09-06T11:00:33.545Z,55.56
2022-09-06T11:06:04.630Z,56.71
2022-09-06T11:08:48.616Z,57.36
2022-09-06T11:11:23.903Z,57.36
2022-09-06T11:13:52.074Z,57.74
2022-09-06T11:16:25.316Z,57.95
2022-09-06T11:18:59.320Z,58.00
2022-09-06T11:22:05.146Z,57.70
2022-09-06T11:24:47.153Z,56.97
2022-09-06T11:27:26.030Z,55.57
2022-09-06T11:29:56.742Z,56.88
2022-09-06T11:32:33.152Z,55.57
2022-09-06T11:35:04.897Z,54.34
2022-09-06T11:37:57.207Z,54.94
2022-09-06T11:40:30.107Z,55.28
2022-09-06T11:43:16.754Z,56.01
2022-09-06T11:45:48.941Z,56.11
2022-09-06T11:48:50.315Z,56.17
2022-09-06T11:51:34.744Z,55.78
2022-09-06T11:54:21.877Z,55.23
2022-09-06T11:56:58.745Z,55.20
2022-09-06T11:59:37.548Z,53.38
2022-09-06T12:02:32.684Z,50.28
2022-09-06T12:05:30.574Z,48.66
2022-09-06T12:08:29.200Z,46.28
2022-09-06T12:11:02.135Z,43.50
2022-09-06T12:14:06.839Z,41.89
2022-09-06T12:17:27.640Z,40.19
2022-09-06T12:20:06.344Z,38.85
2022-09-06T12:23:04.735Z,37.62
2022-09-06T12:26:17.430Z,36.93
2022-09-06T12:28:55.904Z,35.21
2022-09-06T12:36:01.392Z,35.02
2022-09-06T17:48:53.478Z,25.33
2022-09-06T17:51:21.600Z,25.08
2022-09-06T17:53:49.514Z,25.22
2022-09-06T17:56:19.097Z,25.02
2022-09-06T17:58:54.141Z,25.06
2022-09-06T18:01:23.421Z,22.54
2022-09-06T18:03:51.409Z,23.53
2022-09-06T18:06:22.880Z,24.42
2022-09-06T18:08:52.703Z,25.03
2022-09-06T18:11:24.526Z,24.09
2022-09-06T18:13:58.465Z,24.46
2022-09-06T18:16:27.926Z,24.77
2022-09-06T18:19:01.129Z,24.72
2022-09-06T18:21:32.362Z,24.93
2022-09-06T18:24:00.568Z,24.25
2022-09-06T18:26:28.973Z,24.11
2022-09-06T18:28:57.619Z,22.05
2022-09-06T18:31:36.802Z,22.49
2022-09-06T18:34:06.960Z,24.79
2022-09-06T18:36:40.913Z,24.74
2022-09-06T18:39:11.346Z,22.88
2022-09-06T18:42:00.196Z,24.60
2022-09-06T18:44:33.102Z,24.43
2022-09-06T18:47:03.207Z,22.86
2022-09-06T18:49:32.500Z,21.79
2022-09-06T18:52:02.607Z,23.83
2022-09-06T18:54:31.639Z,23.12
2022-09-06T18:57:00.646Z,22.42
2022-09-06T18:59:28.998Z,24.16
2022-09-06T19:01:57.345Z,24.11
2022-09-06T19:04:25.719Z,24.04
2022-09-06T19:06:53.797Z,23.97
2022-09-06T19:09:23.319Z,23.92
2022-09-06T19:11:51.473Z,23.87
2022-09-06T19:14:19.674Z,23.83
2022-09-06T19:16:48.725Z,23.79
2022-09-06T19:19:16.841Z,23.74
2022-09-06T19:21:45.156Z,23.69
2022-09-06T19:24:15.200Z,23.65
2022-09-06T19:26:47.056Z,20.42
2022-09-06T19:29:17.437Z,21.38
2022-09-06T19:31:47.361Z,23.58
2022-09-06T19:34:16.217Z,22.48
2022-09-06T19:36:45.886Z,23.53
2022-09-06T19:39:16.738Z,23.52
2022-09-06T19:41:47.563Z,22.50
2022-09-06T19:44:16.693Z,23.36
2022-09-06T19:46:46.774Z,23.37
2022-09-06T19:49:17.137Z,22.29
2022-09-06T19:51:46.628Z,23.52
2022-09-06T19:54:15.835Z,23.32
2022-09-06T19:56:44.766Z,21.91
2022-09-06T19:59:16.363Z,23.49
2022-09-06T20:01:46.311Z,23.46
2022-09-06T20:04:15.819Z,23.08
2022-09-06T20:06:43.775Z,23.43
2022-09-06T20:09:12.079Z,21.78
2022-09-06T20:11:41.893Z,23.30
2022-09-06T20:14:10.945Z,21.97
2022-09-06T20:16:42.163Z,23.37
2022-09-06T20:19:12.444Z,23.37
2022-09-06T20:21:40.699Z,22.28
2022-09-06T20:24:08.871Z,21.13
2022-09-06T20:26:37.712Z,20.72
2022-09-06T20:29:06.938Z,23.36
2022-09-06T20:31:36.679Z,23.23
2022-09-06T20:34:09.316Z,23.07
2022-09-06T20:36:38.986Z,21.82
2022-09-06T20:39:09.922Z,23.20
2022-09-06T20:41:38.792Z,23.26
2022-09-06T20:44:07.190Z,22.59
2022-09-06T20:46:36.530Z,23.13
2022-09-06T20:49:08.019Z,22.47
2022-09-06T20:51:43.352Z,23.33
2022-09-06T20:54:12.307Z,22.27
2022-09-06T20:56:42.439Z,22.32
2022-09-06T20:59:12.486Z,22.67
2022-09-06T21:01:42.707Z,21.16
2022-09-06T21:04:14.877Z,21.97
2022-09-06T21:06:46.133Z,22.93
2022-09-06T21:09:15.503Z,22.23
2022-09-06T21:11:44.231Z,22.56
2022-09-06T21:14:12.930Z,20.66
2022-09-06T21:16:41.517Z,22.01
2022-09-06T21:19:12.299Z,22.22
2022-09-06T21:21:44.109Z,21.10
2022-09-06T21:24:12.561Z,21.07
2022-09-06T21:26:43.255Z,21.97
2022-09-06T21:29:11.510Z,21.73
2022-09-06T21:31:41.519Z,21.43
2022-09-06T21:34:16.864Z,21.97
2022-09-06T21:36:50.683Z,20.94
2022-09-06T21:39:18.913Z,19.96
2022-09-06T21:41:47.812Z,19.06
2022-09-06T21:44:15.884Z,20.25
2022-09-06T21:46:44.422Z,20.53
2022-09-06T21:49:14.979Z,21.30
2022-09-06T21:51:43.400Z,21.07
2022-09-06T21:54:12.618Z,19.74
2022-09-06T21:56:41.411Z,20.95
2022-09-06T21:59:10.966Z,20.76
2022-09-06T22:01:40.368Z,20.90
2022-09-06T22:04:08.790Z,20.84
2022-09-06T22:06:38.073Z,20.70
2022-09-06T22:09:10.919Z,19.45
2022-09-06T22:11:40.620Z,20.48
2022-09-06T22:14:11.330Z,19.93
2022-09-06T22:16:41.279Z,19.41
2022-09-06T22:19:10.015Z,18.43
2022-09-06T22:21:39.833Z,19.59
2022-09-06T22:24:10.099Z,20.19
2022-09-06T22:26:39.950Z,16.88
2022-09-06T22:29:10.012Z,19.90
2022-09-06T22:31:38.356Z,18.94
2022-09-06T22:34:08.178Z,18.28
2022-09-06T22:36:36.461Z,17.95
2022-09-06T22:39:06.075Z,19.63
2022-09-06T22:41:34.972Z,19.17
2022-09-06T22:44:04.374Z,20.33
2022-09-06T22:46:32.779Z,18.25
2022-09-06T22:49:02.337Z,19.78
2022-09-06T22:51:30.335Z,19.05
2022-09-06T22:53:58.439Z,18.29
2022-09-06T22:56:27.988Z,17.25
2022-09-06T22:58:55.889Z,17.54
2022-09-06T23:01:24.072Z,19.96
2022-09-06T23:03:52.003Z,18.48
2022-09-06T23:06:20.345Z,18.03
2022-09-06T23:08:48.350Z,19.49
2022-09-06T23:11:18.657Z,19.96
2022-09-06T23:13:48.343Z,18.74
2022-09-06T23:16:18.569Z,17.42
2022-09-06T23:18:47.731Z,18.72
2022-09-06T23:21:18.229Z,19.79
2022-09-06T23:23:47.445Z,19.88
2022-09-06T23:26:19.982Z,19.83
2022-09-06T23:28:56.452Z,19.10
2022-09-06T23:31:26.304Z,19.81
2022-09-06T23:33:55.790Z,17.62
2022-09-06T23:36:24.605Z,19.66
2022-09-06T23:38:52.510Z,18.68
2022-09-06T23:41:20.574Z,19.23
2022-09-06T23:43:48.776Z,17.41
2022-09-06T23:46:18.667Z,19.95
2022-09-06T23:48:47.221Z,16.90
2022-09-06T23:51:15.316Z,15.95
2022-09-06T23:53:43.565Z,17.84
2022-09-06T23:56:12.395Z,17.49
2022-09-06T23:58:41.306Z,19.94
